Ua Pou Airport

NTMP · Îles Marquises, French Polynesia

METAR NTMP · Ua Pou Airport

25 六月 13:00 LT
32m
使用的METAR站距离机场1.375 km。
罗盘
风向 的 Ua Pou Airport 14/32
风: 2 kt, 1 beaufort

2 kt

1 kt
改变
0 ft 1.000 2.000 3.000 4.000 5.000
Cloud Cloud Cloud Cloud Cloud Cloud
BKN 4.000
Cloud Cloud Cloud Cloud Cloud Cloud Cloud Cloud
OVC 4.600
METAR NTAA 252230Z AUTO VRB02KT 9999 BKN040 OVC046 27/20 Q1015 TEMPO 05015G25KT 3000 SHRA

METAR Ua Pou Airport - NTMP/UAP

Ua Pou Airport是,French Polynesia中的小机场。 该机场位于纬度-9,34681和经度-140,07995。 该机场有一条跑道: 14/32. 本场的ICAO机场代码为NTMP。 该机场的IATA代码为UAP。 机场在Tahiti FIR中。

该航空气象观测是针对Faa'a International Airport在2024年6月25日 12:30, 当地时间进行的。

机场观察

可变方向的风很小或没有风。

可见度为10 km 或者更多。

有碎云在4.000 ft的高度 和 乌云密布在4.600 ft的高度。 破损或更高的上限为4.000 ft。

温度和风寒是27 °C。 热指数为29。 露点为20 °C,相对湿度为66%。 海平面上的气压为1015 hPa (QNH)。

发展趋势

  • 暂时的

    风来自050°方向,速度为15 kt。 预计25 kt阵风。 可见性变为3 km。 重大天气:阵雨 雨。

白天

今天,太阳从06:05升起,在17:40降落。 这适用于Ua Pou Airport,世界夏令时可能有所不同。 当地时间与世界标准时间之间的时差为-10 小时 30 分钟。 夏令时目前正在进行中。

公司介绍

我们没有关于这个机场的公司信息。

体会

到Vliegles.nl去找飞行课程,跳伞和其他飞行体验。 浏览页面,了解Ua Pou Airport附近所有可用的活动。 你也可以使用搜索功能来寻找你所在地附近的特定飞行课程、跳伞或其他飞行体验。

跑道

Id 标题 侧风 逆风 侧风 %
14/32 154°-334° 2 kt 44 %

逆风成分最大的方向会被突出显示,并用于横风计算。 这并不一定意味着这个方向在使用。

乌云

4.000 ft BKN 碎云
4.600 ft OVC 乌云密布

温度 & 天气

温度 27 °C
露点 20 °C
相对湿度 66%
热度指数 29 °C
Kp-index 1 (0-9)

白天

日出
06:58
中午
12:31
日落
18:03 (4:31)

小工具

你想在你的网站上有一个关于Ua Pou Airport的当前航空天气(METAR)的小部件吗?

显示HTML代码
报告变更